sensor_id;sensor_type;location;lat;lon;timestamp;P1;durP1;ratioP1;P2;durP2;ratioP2
38847;SDS011;24602;44.780;20.408;2022-09-09T00:01:56;15.25;;;8.15;;
38847;SDS011;24602;44.780;20.408;2022-09-09T00:13:33;20.27;;;9.75;;
38847;SDS011;24602;44.780;20.408;2022-09-09T00:16:17;13.98;;;9.15;;
38847;SDS011;24602;44.780;20.408;2022-09-09T00:21:39;20.70;;;9.88;;
38847;SDS011;24602;44.780;20.408;2022-09-09T00:25:10;14.82;;;9.52;;
38847;SDS011;24602;44.780;20.408;2022-09-09T00:27:47;19.65;;;9.88;;
38847;SDS011;24602;44.780;20.408;2022-09-09T00:30:27;18.42;;;9.82;;
38847;SDS011;24602;44.780;20.408;2022-09-09T00:33:09;16.05;;;8.75;;
38847;SDS011;24602;44.780;20.408;2022-09-09T00:35:54;17.77;;;8.57;;
38847;SDS011;24602;44.780;20.408;2022-09-09T00:38:38;14.02;;;8.55;;
38847;SDS011;24602;44.780;20.408;2022-09-09T00:50:30;20.75;;;10.27;;
38847;SDS011;24602;44.780;20.408;2022-09-09T00:56:14;23.48;;;11.30;;
38847;SDS011;24602;44.780;20.408;2022-09-09T00:59:00;20.17;;;10.65;;
38847;SDS011;24602;44.780;20.408;2022-09-09T01:01:44;23.25;;;11.07;;
38847;SDS011;24602;44.780;20.408;2022-09-09T01:04:16;22.17;;;9.93;;
38847;SDS011;24602;44.780;20.408;2022-09-09T01:06:59;28.58;;;10.10;;
38847;SDS011;24602;44.780;20.408;2022-09-09T01:12:28;20.60;;;9.70;;
38847;SDS011;24602;44.780;20.408;2022-09-09T01:15:29;14.80;;;8.48;;
38847;SDS011;24602;44.780;20.408;2022-09-09T01:21:06;13.43;;;8.73;;
38847;SDS011;24602;44.780;20.408;2022-09-09T01:24:27;18.50;;;9.73;;
38847;SDS011;24602;44.780;20.408;2022-09-09T01:27:22;20.70;;;11.27;;
38847;SDS011;24602;44.780;20.408;2022-09-09T01:29:56;17.80;;;10.93;;
38847;SDS011;24602;44.780;20.408;2022-09-09T01:38:35;22.52;;;10.88;;
38847;SDS011;24602;44.780;20.408;2022-09-09T01:41:04;18.65;;;11.27;;
38847;SDS011;24602;44.780;20.408;2022-09-09T01:43:42;13.77;;;9.32;;
38847;SDS011;24602;44.780;20.408;2022-09-09T01:46:13;20.20;;;11.25;;
38847;SDS011;24602;44.780;20.408;2022-09-09T01:48:46;20.67;;;10.88;;
38847;SDS011;24602;44.780;20.408;2022-09-09T01:51:17;19.58;;;11.18;;
38847;SDS011;24602;44.780;20.408;2022-09-09T01:53:48;17.13;;;10.52;;
38847;SDS011;24602;44.780;20.408;2022-09-09T02:02:18;17.15;;;8.90;;
38847;SDS011;24602;44.780;20.408;2022-09-09T02:08:23;15.52;;;7.82;;
38847;SDS011;24602;44.780;20.408;2022-09-09T02:11:25;14.32;;;8.05;;
38847;SDS011;24602;44.780;20.408;2022-09-09T02:14:14;15.70;;;8.30;;
38847;SDS011;24602;44.780;20.408;2022-09-09T02:17:07;18.88;;;8.65;;
38847;SDS011;24602;44.780;20.408;2022-09-09T02:20:05;18.95;;;7.80;;
38847;SDS011;24602;44.780;20.408;2022-09-09T02:23:02;13.90;;;8.05;;
38847;SDS011;24602;44.780;20.408;2022-09-09T02:25:40;15.95;;;7.82;;
38847;SDS011;24602;44.780;20.408;2022-09-09T02:28:21;18.80;;;8.02;;
38847;SDS011;24602;44.780;20.408;2022-09-09T02:30:53;15.20;;;7.45;;
38847;SDS011;24602;44.780;20.408;2022-09-09T02:33:33;13.00;;;7.63;;
38847;SDS011;24602;44.780;20.408;2022-09-09T02:36:07;12.23;;;6.82;;
38847;SDS011;24602;44.780;20.408;2022-09-09T02:38:51;17.30;;;7.70;;
38847;SDS011;24602;44.780;20.408;2022-09-09T02:41:35;13.35;;;7.32;;
38847;SDS011;24602;44.780;20.408;2022-09-09T02:44:17;11.30;;;6.43;;
38847;SDS011;24602;44.780;20.408;2022-09-09T02:54:07;13.05;;;6.38;;
38847;SDS011;24602;44.780;20.408;2022-09-09T02:56:09;17.20;;;6.93;;
38847;SDS011;24602;44.780;20.408;2022-09-09T02:59:02;17.85;;;7.45;;
38847;SDS011;24602;44.780;20.408;2022-09-09T03:01:34;15.82;;;6.78;;
38847;SDS011;24602;44.780;20.408;2022-09-09T03:04:06;14.25;;;7.40;;
38847;SDS011;24602;44.780;20.408;2022-09-09T03:06:39;17.08;;;7.97;;
38847;SDS011;24602;44.780;20.408;2022-09-09T03:09:19;14.93;;;7.45;;
38847;SDS011;24602;44.780;20.408;2022-09-09T03:11:50;14.27;;;7.32;;
38847;SDS011;24602;44.780;20.408;2022-09-09T03:14:23;14.13;;;7.20;;
38847;SDS011;24602;44.780;20.408;2022-09-09T03:16:55;15.07;;;7.57;;
38847;SDS011;24602;44.780;20.408;2022-09-09T03:19:30;15.18;;;7.13;;
38847;SDS011;24602;44.780;20.408;2022-09-09T03:22:00;14.18;;;7.38;;
38847;SDS011;24602;44.780;20.408;2022-09-09T03:24:34;16.70;;;7.32;;
38847;SDS011;24602;44.780;20.408;2022-09-09T03:27:05;12.50;;;6.60;;
38847;SDS011;24602;44.780;20.408;2022-09-09T03:29:38;14.45;;;7.28;;
38847;SDS011;24602;44.780;20.408;2022-09-09T03:32:14;15.35;;;7.50;;
38847;SDS011;24602;44.780;20.408;2022-09-09T03:34:48;15.53;;;7.47;;
38847;SDS011;24602;44.780;20.408;2022-09-09T03:37:20;18.10;;;7.53;;
38847;SDS011;24602;44.780;20.408;2022-09-09T03:39:53;20.80;;;8.20;;
38847;SDS011;24602;44.780;20.408;2022-09-09T03:42:29;20.95;;;8.90;;
38847;SDS011;24602;44.780;20.408;2022-09-09T03:45:06;16.05;;;8.82;;
38847;SDS011;24602;44.780;20.408;2022-09-09T03:47:42;28.52;;;10.05;;
38847;SDS011;24602;44.780;20.408;2022-09-09T03:50:14;14.32;;;9.43;;
38847;SDS011;24602;44.780;20.408;2022-09-09T03:52:48;16.83;;;7.17;;
38847;SDS011;24602;44.780;20.408;2022-09-09T03:55:21;17.55;;;9.35;;
38847;SDS011;24602;44.780;20.408;2022-09-09T03:57:51;19.92;;;8.95;;
38847;SDS011;24602;44.780;20.408;2022-09-09T04:00:19;18.45;;;9.10;;
38847;SDS011;24602;44.780;20.408;2022-09-09T04:02:52;18.05;;;9.50;;
38847;SDS011;24602;44.780;20.408;2022-09-09T04:05:25;18.60;;;9.77;;
38847;SDS011;24602;44.780;20.408;2022-09-09T04:07:56;14.23;;;9.63;;
38847;SDS011;24602;44.780;20.408;2022-09-09T04:10:26;26.45;;;10.43;;
38847;SDS011;24602;44.780;20.408;2022-09-09T04:12:57;23.02;;;10.75;;
38847;SDS011;24602;44.780;20.408;2022-09-09T04:15:28;21.20;;;10.57;;
38847;SDS011;24602;44.780;20.408;2022-09-09T04:17:59;19.58;;;10.85;;
38847;SDS011;24602;44.780;20.408;2022-09-09T04:20:33;17.65;;;9.10;;
38847;SDS011;24602;44.780;20.408;2022-09-09T04:23:05;18.98;;;10.30;;
38847;SDS011;24602;44.780;20.408;2022-09-09T04:25:35;24.38;;;11.25;;
38847;SDS011;24602;44.780;20.408;2022-09-09T04:28:06;22.58;;;10.57;;
38847;SDS011;24602;44.780;20.408;2022-09-09T04:30:40;25.25;;;10.95;;
38847;SDS011;24602;44.780;20.408;2022-09-09T04:33:13;23.25;;;10.80;;
38847;SDS011;24602;44.780;20.408;2022-09-09T04:35:46;27.00;;;11.52;;
38847;SDS011;24602;44.780;20.408;2022-09-09T04:38:19;23.88;;;11.38;;
38847;SDS011;24602;44.780;20.408;2022-09-09T04:40:49;23.40;;;11.32;;
38847;SDS011;24602;44.780;20.408;2022-09-09T04:43:21;20.75;;;10.30;;
38847;SDS011;24602;44.780;20.408;2022-09-09T04:45:54;24.23;;;11.35;;
38847;SDS011;24602;44.780;20.408;2022-09-09T04:48:25;20.45;;;9.95;;
38847;SDS011;24602;44.780;20.408;2022-09-09T04:50:54;14.30;;;9.43;;
38847;SDS011;24602;44.780;20.408;2022-09-09T04:53:24;18.73;;;9.48;;
38847;SDS011;24602;44.780;20.408;2022-09-09T04:56:13;16.17;;;9.55;;
38847;SDS011;24602;44.780;20.408;2022-09-09T04:58:51;18.63;;;9.95;;
38847;SDS011;24602;44.780;20.408;2022-09-09T05:01:34;19.05;;;10.27;;
38847;SDS011;24602;44.780;20.408;2022-09-09T05:04:05;17.20;;;9.68;;
38847;SDS011;24602;44.780;20.408;2022-09-09T05:06:35;19.17;;;9.73;;
38847;SDS011;24602;44.780;20.408;2022-09-09T05:09:07;19.02;;;9.18;;
38847;SDS011;24602;44.780;20.408;2022-09-09T05:11:44;20.50;;;9.38;;
38847;SDS011;24602;44.780;20.408;2022-09-09T05:14:24;17.80;;;9.35;;
38847;SDS011;24602;44.780;20.408;2022-09-09T05:16:55;31.52;;;9.88;;
38847;SDS011;24602;44.780;20.408;2022-09-09T05:19:25;17.63;;;9.07;;
38847;SDS011;24602;44.780;20.408;2022-09-09T05:21:53;22.15;;;10.13;;
38847;SDS011;24602;44.780;20.408;2022-09-09T05:24:30;26.80;;;9.95;;
38847;SDS011;24602;44.780;20.408;2022-09-09T05:29:38;21.23;;;8.13;;
38847;SDS011;24602;44.780;20.408;2022-09-09T05:32:14;16.02;;;8.65;;
38847;SDS011;24602;44.780;20.408;2022-09-09T05:34:49;16.80;;;9.55;;
38847;SDS011;24602;44.780;20.408;2022-09-09T05:37:19;16.52;;;9.10;;
38847;SDS011;24602;44.780;20.408;2022-09-09T05:39:47;20.75;;;8.60;;
38847;SDS011;24602;44.780;20.408;2022-09-09T05:42:18;17.25;;;8.88;;
38847;SDS011;24602;44.780;20.408;2022-09-09T05:44:48;20.35;;;9.55;;
38847;SDS011;24602;44.780;20.408;2022-09-09T05:47:17;19.05;;;8.07;;
38847;SDS011;24602;44.780;20.408;2022-09-09T05:49:48;23.35;;;9.80;;
38847;SDS011;24602;44.780;20.408;2022-09-09T05:52:19;16.40;;;9.38;;
38847;SDS011;24602;44.780;20.408;2022-09-09T05:54:51;19.73;;;9.45;;
38847;SDS011;24602;44.780;20.408;2022-09-09T05:57:19;18.52;;;9.98;;
38847;SDS011;24602;44.780;20.408;2022-09-09T05:59:51;16.77;;;8.18;;
38847;SDS011;24602;44.780;20.408;2022-09-09T06:02:20;19.77;;;8.48;;
38847;SDS011;24602;44.780;20.408;2022-09-09T06:04:52;19.65;;;8.25;;
38847;SDS011;24602;44.780;20.408;2022-09-09T06:07:29;16.33;;;11.88;;
38847;SDS011;24602;44.780;20.408;2022-09-09T06:09:57;13.82;;;8.85;;
38847;SDS011;24602;44.780;20.408;2022-09-09T06:12:30;15.07;;;6.53;;
38847;SDS011;24602;44.780;20.408;2022-09-09T06:15:02;10.95;;;6.63;;
38847;SDS011;24602;44.780;20.408;2022-09-09T06:17:33;12.70;;;7.03;;
38847;SDS011;24602;44.780;20.408;2022-09-09T06:20:03;18.27;;;7.78;;
38847;SDS011;24602;44.780;20.408;2022-09-09T06:22:38;12.65;;;6.55;;
38847;SDS011;24602;44.780;20.408;2022-09-09T06:25:08;10.85;;;5.95;;
38847;SDS011;24602;44.780;20.408;2022-09-09T06:27:42;11.52;;;6.35;;
38847;SDS011;24602;44.780;20.408;2022-09-09T06:30:10;9.20;;;5.82;;
38847;SDS011;24602;44.780;20.408;2022-09-09T06:32:42;17.05;;;6.85;;
38847;SDS011;24602;44.780;20.408;2022-09-09T06:35:10;11.52;;;6.22;;
38847;SDS011;24602;44.780;20.408;2022-09-09T06:37:47;11.73;;;6.45;;
38847;SDS011;24602;44.780;20.408;2022-09-09T06:40:20;13.68;;;6.93;;
38847;SDS011;24602;44.780;20.408;2022-09-09T06:42:48;12.35;;;6.53;;
38847;SDS011;24602;44.780;20.408;2022-09-09T06:45:38;14.57;;;8.45;;
38847;SDS011;24602;44.780;20.408;2022-09-09T06:48:07;23.00;;;10.32;;
38847;SDS011;24602;44.780;20.408;2022-09-09T06:50:40;20.27;;;9.73;;
38847;SDS011;24602;44.780;20.408;2022-09-09T06:53:11;16.25;;;9.73;;
38847;SDS011;24602;44.780;20.408;2022-09-09T06:55:39;22.20;;;9.73;;
38847;SDS011;24602;44.780;20.408;2022-09-09T06:58:12;17.20;;;10.32;;
38847;SDS011;24602;44.780;20.408;2022-09-09T07:00:41;18.20;;;10.27;;
38847;SDS011;24602;44.780;20.408;2022-09-09T07:03:12;17.75;;;9.32;;
38847;SDS011;24602;44.780;20.408;2022-09-09T07:05:43;20.52;;;10.07;;
38847;SDS011;24602;44.780;20.408;2022-09-09T07:08:24;20.70;;;9.10;;
38847;SDS011;24602;44.780;20.408;2022-09-09T07:11:01;21.33;;;9.63;;
38847;SDS011;24602;44.780;20.408;2022-09-09T07:13:40;14.77;;;9.43;;
38847;SDS011;24602;44.780;20.408;2022-09-09T07:16:19;17.20;;;9.10;;
38847;SDS011;24602;44.780;20.408;2022-09-09T07:18:53;24.48;;;10.18;;
38847;SDS011;24602;44.780;20.408;2022-09-09T07:21:25;17.40;;;8.85;;
38847;SDS011;24602;44.780;20.408;2022-09-09T07:23:56;14.43;;;9.40;;
38847;SDS011;24602;44.780;20.408;2022-09-09T07:26:26;14.15;;;8.93;;
38847;SDS011;24602;44.780;20.408;2022-09-09T07:28:59;15.90;;;9.10;;
38847;SDS011;24602;44.780;20.408;2022-09-09T07:31:29;18.52;;;8.88;;
38847;SDS011;24602;44.780;20.408;2022-09-09T07:34:08;17.33;;;9.45;;
38847;SDS011;24602;44.780;20.408;2022-09-09T07:36:37;17.02;;;9.57;;
38847;SDS011;24602;44.780;20.408;2022-09-09T07:39:09;16.42;;;9.07;;
38847;SDS011;24602;44.780;20.408;2022-09-09T07:41:45;19.77;;;8.32;;
38847;SDS011;24602;44.780;20.408;2022-09-09T07:44:18;12.83;;;8.87;;
38847;SDS011;24602;44.780;20.408;2022-09-09T07:47:05;21.65;;;9.75;;
38847;SDS011;24602;44.780;20.408;2022-09-09T07:49:42;20.10;;;9.32;;
38847;SDS011;24602;44.780;20.408;2022-09-09T07:52:12;19.90;;;9.48;;
38847;SDS011;24602;44.780;20.408;2022-09-09T07:54:52;19.17;;;9.38;;
38847;SDS011;24602;44.780;20.408;2022-09-09T07:57:19;15.65;;;9.50;;
38847;SDS011;24602;44.780;20.408;2022-09-09T07:59:55;21.60;;;9.70;;
38847;SDS011;24602;44.780;20.408;2022-09-09T08:02:47;16.20;;;9.02;;
38847;SDS011;24602;44.780;20.408;2022-09-09T08:05:19;18.27;;;8.63;;
38847;SDS011;24602;44.780;20.408;2022-09-09T08:07:49;16.85;;;9.68;;
38847;SDS011;24602;44.780;20.408;2022-09-09T08:10:21;16.17;;;9.27;;
38847;SDS011;24602;44.780;20.408;2022-09-09T08:12:53;17.90;;;8.93;;
38847;SDS011;24602;44.780;20.408;2022-09-09T08:15:45;18.13;;;8.77;;
38847;SDS011;24602;44.780;20.408;2022-09-09T08:18:14;16.55;;;8.93;;
38847;SDS011;24602;44.780;20.408;2022-09-09T08:20:45;19.52;;;8.82;;
38847;SDS011;24602;44.780;20.408;2022-09-09T08:23:14;16.33;;;9.35;;
38847;SDS011;24602;44.780;20.408;2022-09-09T08:25:43;15.65;;;8.65;;
38847;SDS011;24602;44.780;20.408;2022-09-09T08:28:15;16.02;;;8.45;;
38847;SDS011;24602;44.780;20.408;2022-09-09T08:30:44;18.00;;;9.05;;
38847;SDS011;24602;44.780;20.408;2022-09-09T08:33:16;18.80;;;8.57;;
38847;SDS011;24602;44.780;20.408;2022-09-09T08:35:51;22.67;;;8.80;;
38847;SDS011;24602;44.780;20.408;2022-09-09T08:38:23;22.17;;;8.23;;
38847;SDS011;24602;44.780;20.408;2022-09-09T08:40:53;15.13;;;7.55;;
38847;SDS011;24602;44.780;20.408;2022-09-09T08:43:58;14.60;;;8.55;;
38847;SDS011;24602;44.780;20.408;2022-09-09T08:52:12;18.10;;;7.95;;
38847;SDS011;24602;44.780;20.408;2022-09-09T08:57:56;15.23;;;7.43;;
38847;SDS011;24602;44.780;20.408;2022-09-09T09:00:35;15.25;;;8.40;;
38847;SDS011;24602;44.780;20.408;2022-09-09T09:19:34;14.00;;;6.60;;
38847;SDS011;24602;44.780;20.408;2022-09-09T09:25:11;10.40;;;6.07;;
38847;SDS011;24602;44.780;20.408;2022-09-09T09:28:10;16.77;;;7.20;;
38847;SDS011;24602;44.780;20.408;2022-09-09T09:33:46;11.07;;;5.93;;
38847;SDS011;24602;44.780;20.408;2022-09-09T09:36:32;17.58;;;6.43;;
38847;SDS011;24602;44.780;20.408;2022-09-09T09:39:30;11.52;;;6.35;;
38847;SDS011;24602;44.780;20.408;2022-09-09T09:42:29;18.23;;;6.90;;
38847;SDS011;24602;44.780;20.408;2022-09-09T09:45:07;9.45;;;6.10;;
38847;SDS011;24602;44.780;20.408;2022-09-09T09:48:06;11.50;;;6.78;;
38847;SDS011;24602;44.780;20.408;2022-09-09T09:50:49;12.68;;;6.40;;
38847;SDS011;24602;44.780;20.408;2022-09-09T09:53:39;10.73;;;6.63;;
38847;SDS011;24602;44.780;20.408;2022-09-09T09:56:13;15.20;;;7.38;;
38847;SDS011;24602;44.780;20.408;2022-09-09T10:01:30;14.00;;;7.10;;
38847;SDS011;24602;44.780;20.408;2022-09-09T10:04:21;12.65;;;7.72;;
38847;SDS011;24602;44.780;20.408;2022-09-09T10:06:54;10.48;;;6.63;;
38847;SDS011;24602;44.780;20.408;2022-09-09T10:09:30;17.17;;;7.57;;
38847;SDS011;24602;44.780;20.408;2022-09-09T10:21:03;13.73;;;7.88;;
38847;SDS011;24602;44.780;20.408;2022-09-09T10:33:10;36.65;;;10.23;;
38847;SDS011;24602;44.780;20.408;2022-09-09T10:36:04;19.70;;;9.75;;
38847;SDS011;24602;44.780;20.408;2022-09-09T10:39:03;30.48;;;9.23;;
38847;SDS011;24602;44.780;20.408;2022-09-09T10:42:00;13.27;;;7.75;;
38847;SDS011;24602;44.780;20.408;2022-09-09T10:45:01;14.68;;;7.95;;
38847;SDS011;24602;44.780;20.408;2022-09-09T10:53:43;23.08;;;8.18;;
38847;SDS011;24602;44.780;20.408;2022-09-09T10:56:27;16.85;;;7.10;;
38847;SDS011;24602;44.780;20.408;2022-09-09T10:59:36;33.88;;;9.82;;
38847;SDS011;24602;44.780;20.408;2022-09-09T11:02:41;17.27;;;8.40;;
38847;SDS011;24602;44.780;20.408;2022-09-09T11:04:59;16.30;;;8.05;;
38847;SDS011;24602;44.780;20.408;2022-09-09T11:07:57;15.27;;;8.07;;
38847;SDS011;24602;44.780;20.408;2022-09-09T11:13:31;19.08;;;8.27;;
38847;SDS011;24602;44.780;20.408;2022-09-09T11:16:51;14.18;;;7.32;;
38847;SDS011;24602;44.780;20.408;2022-09-09T11:19:39;14.38;;;7.35;;
38847;SDS011;24602;44.780;20.408;2022-09-09T11:25:22;13.38;;;7.63;;
38847;SDS011;24602;44.780;20.408;2022-09-09T11:36:53;18.52;;;7.10;;
38847;SDS011;24602;44.780;20.408;2022-09-09T11:43:03;13.80;;;6.45;;
38847;SDS011;24602;44.780;20.408;2022-09-09T11:45:38;12.60;;;6.30;;
38847;SDS011;24602;44.780;20.408;2022-09-09T11:51:13;15.48;;;5.65;;
38847;SDS011;24602;44.780;20.408;2022-09-09T11:53:51;13.05;;;5.85;;
38847;SDS011;24602;44.780;20.408;2022-09-09T11:56:50;8.57;;;4.35;;
38847;SDS011;24602;44.780;20.408;2022-09-09T11:59:27;13.98;;;5.93;;
38847;SDS011;24602;44.780;20.408;2022-09-09T12:02:02;13.15;;;4.72;;
38847;SDS011;24602;44.780;20.408;2022-09-09T12:07:56;7.60;;;4.18;;
38847;SDS011;24602;44.780;20.408;2022-09-09T12:10:36;12.43;;;5.28;;
38847;SDS011;24602;44.780;20.408;2022-09-09T12:13:19;14.18;;;5.03;;
38847;SDS011;24602;44.780;20.408;2022-09-09T12:15:50;8.80;;;5.32;;
38847;SDS011;24602;44.780;20.408;2022-09-09T12:18:22;9.10;;;5.10;;
38847;SDS011;24602;44.780;20.408;2022-09-09T12:27:36;13.23;;;4.97;;
38847;SDS011;24602;44.780;20.408;2022-09-09T12:30:20;8.10;;;4.32;;
38847;SDS011;24602;44.780;20.408;2022-09-09T12:33:01;10.02;;;5.28;;
38847;SDS011;24602;44.780;20.408;2022-09-09T12:35:47;15.00;;;5.47;;
38847;SDS011;24602;44.780;20.408;2022-09-09T12:38:36;12.00;;;6.07;;
38847;SDS011;24602;44.780;20.408;2022-09-09T12:41:25;13.38;;;7.25;;
38847;SDS011;24602;44.780;20.408;2022-09-09T12:44:09;9.85;;;6.30;;
38847;SDS011;24602;44.780;20.408;2022-09-09T12:46:50;8.35;;;6.60;;
38847;SDS011;24602;44.780;20.408;2022-09-09T12:49:26;11.82;;;4.43;;
38847;SDS011;24602;44.780;20.408;2022-09-09T12:52:16;10.40;;;5.05;;
38847;SDS011;24602;44.780;20.408;2022-09-09T12:54:57;13.75;;;7.07;;
38847;SDS011;24602;44.780;20.408;2022-09-09T12:57:32;12.93;;;6.60;;
38847;SDS011;24602;44.780;20.408;2022-09-09T13:00:17;15.65;;;7.88;;
38847;SDS011;24602;44.780;20.408;2022-09-09T13:02:58;13.15;;;6.18;;
38847;SDS011;24602;44.780;20.408;2022-09-09T13:05:28;14.45;;;8.25;;
38847;SDS011;24602;44.780;20.408;2022-09-09T13:08:11;19.00;;;6.88;;
38847;SDS011;24602;44.780;20.408;2022-09-09T13:10:52;17.03;;;10.20;;
38847;SDS011;24602;44.780;20.408;2022-09-09T13:19:09;9.73;;;4.25;;
38847;SDS011;24602;44.780;20.408;2022-09-09T13:21:45;13.00;;;7.80;;
38847;SDS011;24602;44.780;20.408;2022-09-09T13:24:27;15.38;;;8.85;;
38847;SDS011;24602;44.780;20.408;2022-09-09T13:27:05;15.00;;;6.70;;
38847;SDS011;24602;44.780;20.408;2022-09-09T13:29:57;12.82;;;5.75;;
38847;SDS011;24602;44.780;20.408;2022-09-09T13:32:29;12.07;;;5.90;;
38847;SDS011;24602;44.780;20.408;2022-09-09T13:35:29;10.00;;;5.40;;
38847;SDS011;24602;44.780;20.408;2022-09-09T13:38:06;9.27;;;5.18;;
38847;SDS011;24602;44.780;20.408;2022-09-09T13:41:04;10.55;;;3.83;;
38847;SDS011;24602;44.780;20.408;2022-09-09T13:43:45;8.93;;;3.92;;
38847;SDS011;24602;44.780;20.408;2022-09-09T13:46:36;10.35;;;4.05;;
38847;SDS011;24602;44.780;20.408;2022-09-09T13:49:22;6.63;;;4.15;;
38847;SDS011;24602;44.780;20.408;2022-09-09T13:52:02;7.95;;;3.42;;
38847;SDS011;24602;44.780;20.408;2022-09-09T13:54:36;11.68;;;5.28;;
38847;SDS011;24602;44.780;20.408;2022-09-09T13:57:04;9.40;;;4.53;;
38847;SDS011;24602;44.780;20.408;2022-09-09T13:59:52;9.27;;;5.07;;
38847;SDS011;24602;44.780;20.408;2022-09-09T14:02:37;8.18;;;4.63;;
38847;SDS011;24602;44.780;20.408;2022-09-09T14:05:14;8.18;;;3.83;;
38847;SDS011;24602;44.780;20.408;2022-09-09T14:07:44;8.73;;;3.50;;
38847;SDS011;24602;44.780;20.408;2022-09-09T14:10:20;5.50;;;3.35;;
38847;SDS011;24602;44.780;20.408;2022-09-09T14:12:52;8.05;;;3.67;;
38847;SDS011;24602;44.780;20.408;2022-09-09T14:15:22;8.55;;;3.40;;
38847;SDS011;24602;44.780;20.408;2022-09-09T14:17:50;8.00;;;3.85;;
38847;SDS011;24602;44.780;20.408;2022-09-09T14:20:20;10.50;;;3.55;;
38847;SDS011;24602;44.780;20.408;2022-09-09T14:22:48;8.70;;;3.50;;
38847;SDS011;24602;44.780;20.408;2022-09-09T14:25:16;6.55;;;3.53;;
38847;SDS011;24602;44.780;20.408;2022-09-09T14:27:47;8.50;;;4.00;;
38847;SDS011;24602;44.780;20.408;2022-09-09T14:30:17;6.68;;;3.97;;
38847;SDS011;24602;44.780;20.408;2022-09-09T14:32:50;5.72;;;3.67;;
38847;SDS011;24602;44.780;20.408;2022-09-09T14:35:20;7.13;;;3.90;;
38847;SDS011;24602;44.780;20.408;2022-09-09T14:37:49;6.35;;;3.58;;
38847;SDS011;24602;44.780;20.408;2022-09-09T14:40:24;9.35;;;3.55;;
38847;SDS011;24602;44.780;20.408;2022-09-09T14:42:57;4.93;;;2.97;;
38847;SDS011;24602;44.780;20.408;2022-09-09T14:45:27;5.63;;;3.00;;
38847;SDS011;24602;44.780;20.408;2022-09-09T14:48:18;7.30;;;4.05;;
38847;SDS011;24602;44.780;20.408;2022-09-09T14:50:49;8.55;;;5.95;;
38847;SDS011;24602;44.780;20.408;2022-09-09T14:53:22;8.07;;;4.07;;
38847;SDS011;24602;44.780;20.408;2022-09-09T14:55:53;7.13;;;4.00;;
38847;SDS011;24602;44.780;20.408;2022-09-09T14:58:37;10.65;;;6.00;;
38847;SDS011;24602;44.780;20.408;2022-09-09T15:01:08;7.18;;;3.00;;
38847;SDS011;24602;44.780;20.408;2022-09-09T15:06:15;11.65;;;4.70;;
38847;SDS011;24602;44.780;20.408;2022-09-09T15:08:45;6.20;;;3.53;;
38847;SDS011;24602;44.780;20.408;2022-09-09T15:11:20;12.20;;;4.60;;
38847;SDS011;24602;44.780;20.408;2022-09-09T15:13:51;8.05;;;4.95;;
38847;SDS011;24602;44.780;20.408;2022-09-09T15:16:24;9.93;;;5.00;;
38847;SDS011;24602;44.780;20.408;2022-09-09T15:18:55;11.30;;;4.55;;
38847;SDS011;24602;44.780;20.408;2022-09-09T15:21:26;8.05;;;4.90;;
38847;SDS011;24602;44.780;20.408;2022-09-09T15:23:56;9.52;;;5.07;;
38847;SDS011;24602;44.780;20.408;2022-09-09T15:26:31;6.28;;;3.20;;
38847;SDS011;24602;44.780;20.408;2022-09-09T15:29:01;8.38;;;5.15;;
38847;SDS011;24602;44.780;20.408;2022-09-09T15:31:31;10.20;;;4.68;;
38847;SDS011;24602;44.780;20.408;2022-09-09T15:34:01;8.98;;;5.55;;
38847;SDS011;24602;44.780;20.408;2022-09-09T15:36:34;11.13;;;4.72;;
38847;SDS011;24602;44.780;20.408;2022-09-09T15:39:15;9.65;;;5.25;;
38847;SDS011;24602;44.780;20.408;2022-09-09T15:41:47;7.35;;;4.38;;
38847;SDS011;24602;44.780;20.408;2022-09-09T15:44:22;10.15;;;4.88;;
38847;SDS011;24602;44.780;20.408;2022-09-09T15:46:54;11.85;;;6.18;;
38847;SDS011;24602;44.780;20.408;2022-09-09T15:49:25;6.82;;;3.55;;
38847;SDS011;24602;44.780;20.408;2022-09-09T15:51:56;9.55;;;4.90;;
38847;SDS011;24602;44.780;20.408;2022-09-09T15:54:38;7.68;;;4.85;;
38847;SDS011;24602;44.780;20.408;2022-09-09T15:57:11;8.00;;;4.35;;
38847;SDS011;24602;44.780;20.408;2022-09-09T15:59:44;6.43;;;4.18;;
38847;SDS011;24602;44.780;20.408;2022-09-09T16:02:14;7.82;;;4.10;;
38847;SDS011;24602;44.780;20.408;2022-09-09T16:04:46;15.13;;;5.15;;
38847;SDS011;24602;44.780;20.408;2022-09-09T16:07:16;8.38;;;4.20;;
38847;SDS011;24602;44.780;20.408;2022-09-09T16:09:49;10.00;;;5.22;;
38847;SDS011;24602;44.780;20.408;2022-09-09T16:12:34;11.05;;;6.57;;
38847;SDS011;24602;44.780;20.408;2022-09-09T16:15:09;11.63;;;6.05;;
38847;SDS011;24602;44.780;20.408;2022-09-09T16:17:38;9.85;;;4.82;;
38847;SDS011;24602;44.780;20.408;2022-09-09T16:20:09;10.93;;;6.90;;
38847;SDS011;24602;44.780;20.408;2022-09-09T16:22:42;11.52;;;5.70;;
38847;SDS011;24602;44.780;20.408;2022-09-09T16:25:14;14.48;;;7.82;;
38847;SDS011;24602;44.780;20.408;2022-09-09T16:27:43;13.38;;;9.00;;
38847;SDS011;24602;44.780;20.408;2022-09-09T16:30:14;13.82;;;6.50;;
38847;SDS011;24602;44.780;20.408;2022-09-09T16:32:42;14.60;;;7.07;;
38847;SDS011;24602;44.780;20.408;2022-09-09T16:35:13;11.35;;;5.47;;
38847;SDS011;24602;44.780;20.408;2022-09-09T16:37:44;8.57;;;5.15;;
38847;SDS011;24602;44.780;20.408;2022-09-09T16:40:15;12.60;;;5.50;;
38847;SDS011;24602;44.780;20.408;2022-09-09T16:42:48;9.35;;;4.90;;
38847;SDS011;24602;44.780;20.408;2022-09-09T16:45:16;15.82;;;9.05;;
38847;SDS011;24602;44.780;20.408;2022-09-09T16:47:47;11.15;;;6.82;;
38847;SDS011;24602;44.780;20.408;2022-09-09T16:50:18;18.45;;;9.65;;
38847;SDS011;24602;44.780;20.408;2022-09-09T16:52:55;13.30;;;6.63;;
38847;SDS011;24602;44.780;20.408;2022-09-09T16:55:22;13.23;;;6.82;;
38847;SDS011;24602;44.780;20.408;2022-09-09T16:57:56;9.98;;;6.22;;
38847;SDS011;24602;44.780;20.408;2022-09-09T17:00:26;10.77;;;6.63;;
38847;SDS011;24602;44.780;20.408;2022-09-09T17:03:00;12.27;;;7.82;;
38847;SDS011;24602;44.780;20.408;2022-09-09T17:05:31;11.73;;;7.65;;
38847;SDS011;24602;44.780;20.408;2022-09-09T17:08:00;11.38;;;5.32;;
38847;SDS011;24602;44.780;20.408;2022-09-09T17:10:30;11.07;;;6.72;;
38847;SDS011;24602;44.780;20.408;2022-09-09T17:13:04;14.43;;;8.55;;
38847;SDS011;24602;44.780;20.408;2022-09-09T17:15:31;12.95;;;6.45;;
38847;SDS011;24602;44.780;20.408;2022-09-09T17:18:02;10.43;;;5.88;;
38847;SDS011;24602;44.780;20.408;2022-09-09T17:20:34;10.25;;;4.40;;
38847;SDS011;24602;44.780;20.408;2022-09-09T17:23:17;13.23;;;5.90;;
38847;SDS011;24602;44.780;20.408;2022-09-09T17:25:59;12.05;;;5.80;;
38847;SDS011;24602;44.780;20.408;2022-09-09T17:28:34;10.27;;;4.95;;
38847;SDS011;24602;44.780;20.408;2022-09-09T17:31:04;16.30;;;8.95;;
38847;SDS011;24602;44.780;20.408;2022-09-09T17:33:46;9.63;;;5.78;;
38847;SDS011;24602;44.780;20.408;2022-09-09T17:36:24;19.08;;;7.35;;
38847;SDS011;24602;44.780;20.408;2022-09-09T17:39:01;11.27;;;6.63;;
38847;SDS011;24602;44.780;20.408;2022-09-09T17:41:35;9.40;;;5.05;;
38847;SDS011;24602;44.780;20.408;2022-09-09T17:44:06;12.40;;;7.35;;
38847;SDS011;24602;44.780;20.408;2022-09-09T17:46:41;12.80;;;5.20;;
38847;SDS011;24602;44.780;20.408;2022-09-09T17:49:13;14.63;;;4.90;;
38847;SDS011;24602;44.780;20.408;2022-09-09T17:51:52;12.15;;;5.90;;